sensor_id;sensor_type;location;lat;lon;timestamp;pressure;altitude;pressure_sealevel;temperature;humidity
57048;BME280;42934;54.294;18.598;2022-09-09T00:00:34;100604.09;;;15.80;55.93
57048;BME280;42934;54.294;18.598;2022-09-09T00:03:27;100599.84;;;15.77;55.96
57048;BME280;42934;54.294;18.598;2022-09-09T00:06:06;100605.13;;;15.77;56.13
57048;BME280;42934;54.294;18.598;2022-09-09T00:08:45;100605.88;;;15.79;55.99
57048;BME280;42934;54.294;18.598;2022-09-09T00:11:24;100602.47;;;15.77;56.08
57048;BME280;42934;54.294;18.598;2022-09-09T00:14:00;100596.25;;;15.78;56.04
57048;BME280;42934;54.294;18.598;2022-09-09T00:16:35;100599.72;;;15.79;56.00
57048;BME280;42934;54.294;18.598;2022-09-09T00:19:14;100598.81;;;15.80;56.00
57048;BME280;42934;54.294;18.598;2022-09-09T00:21:56;100591.97;;;15.76;56.00
57048;BME280;42934;54.294;18.598;2022-09-09T00:24:34;100599.06;;;15.75;56.02
57048;BME280;42934;54.294;18.598;2022-09-09T00:27:11;100594.78;;;15.73;56.06
57048;BME280;42934;54.294;18.598;2022-09-09T00:29:47;100597.34;;;15.74;56.29
57048;BME280;42934;54.294;18.598;2022-09-09T00:32:24;100593.94;;;15.72;56.27
57048;BME280;42934;54.294;18.598;2022-09-09T00:35:00;100592.22;;;15.71;56.20
57048;BME280;42934;54.294;18.598;2022-09-09T00:37:31;100587.84;;;15.70;56.35
57048;BME280;42934;54.294;18.598;2022-09-09T00:40:16;100585.34;;;15.67;56.47
57048;BME280;42934;54.294;18.598;2022-09-09T00:42:49;100585.44;;;15.65;56.54
57048;BME280;42934;54.294;18.598;2022-09-09T00:45:47;100582.88;;;15.64;56.28
57048;BME280;42934;54.294;18.598;2022-09-09T00:48:28;100583.81;;;15.63;56.43
57048;BME280;42934;54.294;18.598;2022-09-09T00:51:03;100584.59;;;15.65;56.36
57048;BME280;42934;54.294;18.598;2022-09-09T00:53:39;100575.78;;;15.64;56.37
57048;BME280;42934;54.294;18.598;2022-09-09T00:56:13;100580.16;;;15.65;56.50
57048;BME280;42934;54.294;18.598;2022-09-09T00:58:48;100588.00;;;15.67;56.57
57048;BME280;42934;54.294;18.598;2022-09-09T01:01:23;100588.09;;;15.65;56.56
57048;BME280;42934;54.294;18.598;2022-09-09T01:03:55;100575.78;;;15.64;56.40
57048;BME280;42934;54.294;18.598;2022-09-09T01:06:30;100578.53;;;15.63;56.62
57048;BME280;42934;54.294;18.598;2022-09-09T01:09:16;100578.53;;;15.63;56.52
57048;BME280;42934;54.294;18.598;2022-09-09T01:11:57;100571.59;;;15.60;56.68
57048;BME280;42934;54.294;18.598;2022-09-09T01:14:40;100578.59;;;15.61;56.54
57048;BME280;42934;54.294;18.598;2022-09-09T01:17:16;100582.13;;;15.62;56.71
57048;BME280;42934;54.294;18.598;2022-09-09T01:20:05;100577.75;;;15.61;56.31
57048;BME280;42934;54.294;18.598;2022-09-09T01:22:56;100574.19;;;15.62;56.52
57048;BME280;42934;54.294;18.598;2022-09-09T01:26:10;100578.53;;;15.63;56.51
57048;BME280;42934;54.294;18.598;2022-09-09T01:28:45;100582.00;;;15.63;56.63
57048;BME280;42934;54.294;18.598;2022-09-09T01:31:19;100578.53;;;15.63;56.49
57048;BME280;42934;54.294;18.598;2022-09-09T01:33:49;100582.97;;;15.62;56.59
57048;BME280;42934;54.294;18.598;2022-09-09T01:36:26;100585.63;;;15.62;56.41
57048;BME280;42934;54.294;18.598;2022-09-09T01:38:58;100583.81;;;15.63;56.71
57048;BME280;42934;54.294;18.598;2022-09-09T01:41:29;100582.13;;;15.62;56.52
57048;BME280;42934;54.294;18.598;2022-09-09T01:44:04;100590.91;;;15.62;56.59
57048;BME280;42934;54.294;18.598;2022-09-09T01:46:35;100589.09;;;15.63;56.77
57048;BME280;42934;54.294;18.598;2022-09-09T01:49:09;100585.63;;;15.62;56.63
57048;BME280;42934;54.294;18.598;2022-09-09T01:51:39;100584.75;;;15.62;56.86
57048;BME280;42934;54.294;18.598;2022-09-09T01:54:13;100578.59;;;15.61;56.80
57048;BME280;42934;54.294;18.598;2022-09-09T01:56:50;100585.63;;;15.62;56.72
57048;BME280;42934;54.294;18.598;2022-09-09T01:59:41;100584.75;;;15.62;56.94
57048;BME280;42934;54.294;18.598;2022-09-09T02:02:18;100581.16;;;15.63;56.77
57048;BME280;42934;54.294;18.598;2022-09-09T02:05:11;100579.47;;;15.62;56.83
57048;BME280;42934;54.294;18.598;2022-09-09T02:07:47;100581.34;;;15.60;56.93
57048;BME280;42934;54.294;18.598;2022-09-09T02:10:42;100579.66;;;15.59;56.83
57048;BME280;42934;54.294;18.598;2022-09-09T02:13:24;100578.75;;;15.58;56.84
57048;BME280;42934;54.294;18.598;2022-09-09T02:15:57;100589.28;;;15.60;57.05
57048;BME280;42934;54.294;18.598;2022-09-09T02:18:35;100582.28;;;15.59;57.04
57048;BME280;42934;54.294;18.598;2022-09-09T02:21:06;100578.75;;;15.58;56.91
57048;BME280;42934;54.294;18.598;2022-09-09T02:23:36;100579.53;;;15.60;56.97
57048;BME280;42934;54.294;18.598;2022-09-09T02:26:11;100579.66;;;15.59;56.99
57048;BME280;42934;54.294;18.598;2022-09-09T02:28:53;100582.28;;;15.59;57.00
57048;BME280;42934;54.294;18.598;2022-09-09T02:31:25;100578.84;;;15.57;57.00
57048;BME280;42934;54.294;18.598;2022-09-09T02:34:01;100580.66;;;15.56;57.31
57048;BME280;42934;54.294;18.598;2022-09-09T02:36:34;100583.31;;;15.56;57.28
57048;BME280;42934;54.294;18.598;2022-09-09T02:39:05;100578.00;;;15.56;57.14
57048;BME280;42934;54.294;18.598;2022-09-09T02:41:39;100575.38;;;15.56;57.26
57048;BME280;42934;54.294;18.598;2022-09-09T02:44:12;100581.56;;;15.55;57.45
57048;BME280;42934;54.294;18.598;2022-09-09T02:47:03;100575.38;;;15.56;57.32
57048;BME280;42934;54.294;18.598;2022-09-09T02:49:43;100575.38;;;15.56;57.48
57048;BME280;42934;54.294;18.598;2022-09-09T02:52:23;100573.63;;;15.55;57.44
57048;BME280;42934;54.294;18.598;2022-09-09T02:55:00;100575.44;;;15.55;57.41
57048;BME280;42934;54.294;18.598;2022-09-09T02:57:32;100580.81;;;15.53;57.56
57048;BME280;42934;54.294;18.598;2022-09-09T03:00:08;100580.91;;;15.52;57.65
57048;BME280;42934;54.294;18.598;2022-09-09T03:02:38;100584.50;;;15.51;57.84
57048;BME280;42934;54.294;18.598;2022-09-09T03:05:08;100593.28;;;15.51;57.85
57048;BME280;42934;54.294;18.598;2022-09-09T03:07:38;100600.28;;;15.52;57.89
57048;BME280;42934;54.294;18.598;2022-09-09T03:10:08;100610.00;;;15.52;57.95
57048;BME280;42934;54.294;18.598;2022-09-09T03:12:38;100614.63;;;15.48;58.25
57048;BME280;42934;54.294;18.598;2022-09-09T03:15:10;100612.19;;;15.43;59.05
57048;BME280;42934;54.294;18.598;2022-09-09T03:17:40;100614.84;;;15.43;59.19
57048;BME280;42934;54.294;18.598;2022-09-09T03:20:10;100612.47;;;15.39;59.84
57048;BME280;42934;54.294;18.598;2022-09-09T03:22:40;100615.28;;;15.36;60.49
57048;BME280;42934;54.294;18.598;2022-09-09T03:25:09;100618.16;;;15.31;61.42
57048;BME280;42934;54.294;18.598;2022-09-09T03:27:39;100631.06;;;15.20;62.17
57048;BME280;42934;54.294;18.598;2022-09-09T03:30:10;100636.78;;;15.12;63.39
57048;BME280;42934;54.294;18.598;2022-09-09T03:32:41;100645.47;;;14.97;64.96
57048;BME280;42934;54.294;18.598;2022-09-09T03:35:16;100649.06;;;14.79;66.50
57048;BME280;42934;54.294;18.598;2022-09-09T03:37:45;100646.09;;;14.67;67.02
57048;BME280;42934;54.294;18.598;2022-09-09T03:40:15;100654.47;;;14.58;67.23
57048;BME280;42934;54.294;18.598;2022-09-09T03:42:47;100649.50;;;14.52;67.51
57048;BME280;42934;54.294;18.598;2022-09-09T03:45:19;100648.06;;;14.45;68.60
57048;BME280;42934;54.294;18.598;2022-09-09T03:47:49;100647.44;;;14.40;68.08
57048;BME280;42934;54.294;18.598;2022-09-09T03:50:18;100643.94;;;14.39;68.50
57048;BME280;42934;54.294;18.598;2022-09-09T03:52:48;100645.50;;;14.43;68.63
57048;BME280;42934;54.294;18.598;2022-09-09T03:55:21;100639.34;;;14.43;68.69
57048;BME280;42934;54.294;18.598;2022-09-09T03:57:51;100639.34;;;14.43;68.77
57048;BME280;42934;54.294;18.598;2022-09-09T04:00:21;100650.00;;;14.41;68.80
57048;BME280;42934;54.294;18.598;2022-09-09T04:02:53;100640.44;;;14.39;69.07
57048;BME280;42934;54.294;18.598;2022-09-09T04:05:25;100642.28;;;14.37;69.37
57048;BME280;42934;54.294;18.598;2022-09-09T04:07:55;100641.66;;;14.31;69.47
57048;BME280;42934;54.294;18.598;2022-09-09T04:10:25;100644.28;;;14.31;69.75
57048;BME280;42934;54.294;18.598;2022-09-09T04:12:55;100650.72;;;14.26;69.82
57048;BME280;42934;54.294;18.598;2022-09-09T04:15:26;100649.72;;;14.28;70.12
57048;BME280;42934;54.294;18.598;2022-09-09T04:17:55;100644.44;;;14.28;70.10
57048;BME280;42934;54.294;18.598;2022-09-09T04:20:25;100654.00;;;14.31;69.98
57048;BME280;42934;54.294;18.598;2022-09-09T04:22:54;100642.50;;;14.32;70.15
57048;BME280;42934;54.294;18.598;2022-09-09T04:25:24;100647.88;;;14.30;70.26
57048;BME280;42934;54.294;18.598;2022-09-09T04:27:54;100654.09;;;14.29;70.54
57048;BME280;42934;54.294;18.598;2022-09-09T04:30:25;100653.97;;;14.32;70.28
57048;BME280;42934;54.294;18.598;2022-09-09T04:32:56;100644.16;;;14.35;70.43
57048;BME280;42934;54.294;18.598;2022-09-09T04:35:25;100644.00;;;14.38;70.55
57048;BME280;42934;54.294;18.598;2022-09-09T04:37:56;100651.72;;;14.42;70.44
57048;BME280;42934;54.294;18.598;2022-09-09T04:40:27;100642.00;;;14.43;70.49
57048;BME280;42934;54.294;18.598;2022-09-09T04:42:58;100650.72;;;14.45;70.68
57048;BME280;42934;54.294;18.598;2022-09-09T04:45:29;100651.63;;;14.44;70.62
57048;BME280;42934;54.294;18.598;2022-09-09T04:47:59;100652.50;;;14.44;70.71
57048;BME280;42934;54.294;18.598;2022-09-09T04:50:30;100654.25;;;14.44;71.06
57048;BME280;42934;54.294;18.598;2022-09-09T04:53:00;100650.00;;;14.41;71.09
57048;BME280;42934;54.294;18.598;2022-09-09T04:55:30;100646.50;;;14.41;71.18
57048;BME280;42934;54.294;18.598;2022-09-09T04:58:04;100645.50;;;14.43;71.01
57048;BME280;42934;54.294;18.598;2022-09-09T05:00:36;100649.06;;;14.42;71.43
57048;BME280;42934;54.294;18.598;2022-09-09T05:03:08;100659.53;;;14.44;71.50
57048;BME280;42934;54.294;18.598;2022-09-09T05:05:38;100671.16;;;14.41;71.71
57048;BME280;42934;54.294;18.598;2022-09-09T05:08:09;100667.88;;;14.36;71.79
57048;BME280;42934;54.294;18.598;2022-09-09T05:10:41;100670.34;;;14.39;71.93
57048;BME280;42934;54.294;18.598;2022-09-09T05:13:12;100664.13;;;14.40;72.08
57048;BME280;42934;54.294;18.598;2022-09-09T05:15:51;100668.78;;;14.35;71.93
57048;BME280;42934;54.294;18.598;2022-09-09T05:18:22;100665.22;;;14.36;71.91
57048;BME280;42934;54.294;18.598;2022-09-09T05:20:52;100668.72;;;14.37;71.92
57048;BME280;42934;54.294;18.598;2022-09-09T05:23:22;100675.69;;;14.38;71.80
57048;BME280;42934;54.294;18.598;2022-09-09T05:25:55;100666.06;;;14.37;71.82
57048;BME280;42934;54.294;18.598;2022-09-09T05:28:27;100668.63;;;14.38;71.72
57048;BME280;42934;54.294;18.598;2022-09-09T05:31:00;100675.63;;;14.39;71.90
57048;BME280;42934;54.294;18.598;2022-09-09T05:33:34;100671.16;;;14.41;71.69
57048;BME280;42934;54.294;18.598;2022-09-09T05:36:06;100672.06;;;14.40;71.68
57048;BME280;42934;54.294;18.598;2022-09-09T05:38:37;100665.91;;;14.40;71.96
57048;BME280;42934;54.294;18.598;2022-09-09T05:41:08;100666.78;;;14.40;71.72
57048;BME280;42934;54.294;18.598;2022-09-09T05:43:39;100668.56;;;14.40;71.76
57048;BME280;42934;54.294;18.598;2022-09-09T05:46:12;100676.50;;;14.40;71.84
57048;BME280;42934;54.294;18.598;2022-09-09T05:48:43;100676.50;;;14.40;71.78
57048;BME280;42934;54.294;18.598;2022-09-09T05:51:17;100685.25;;;14.40;71.84
57048;BME280;42934;54.294;18.598;2022-09-09T05:53:48;100684.56;;;14.37;71.67
57048;BME280;42934;54.294;18.598;2022-09-09T05:56:18;100684.72;;;14.34;71.86
57048;BME280;42934;54.294;18.598;2022-09-09T05:58:50;100690.06;;;14.32;71.75
57048;BME280;42934;54.294;18.598;2022-09-09T06:01:24;100683.16;;;14.29;71.91
57048;BME280;42934;54.294;18.598;2022-09-09T06:03:55;100685.84;;;14.28;71.84
57048;BME280;42934;54.294;18.598;2022-09-09T06:06:25;100678.88;;;14.27;71.98
57048;BME280;42934;54.294;18.598;2022-09-09T06:08:58;100684.31;;;14.24;71.68
57048;BME280;42934;54.294;18.598;2022-09-09T06:11:34;100688.78;;;14.22;71.59
57048;BME280;42934;54.294;18.598;2022-09-09T06:14:04;100687.94;;;14.21;71.85
57048;BME280;42934;54.294;18.598;2022-09-09T06:16:35;100686.19;;;14.20;71.53
57048;BME280;42934;54.294;18.598;2022-09-09T06:19:12;100696.91;;;14.17;71.71
57048;BME280;42934;54.294;18.598;2022-09-09T06:21:44;100695.28;;;14.15;71.82
57048;BME280;42934;54.294;18.598;2022-09-09T06:24:16;100696.16;;;14.15;71.88
57048;BME280;42934;54.294;18.598;2022-09-09T06:26:47;100698.00;;;14.13;72.10
57048;BME280;42934;54.294;18.598;2022-09-09T06:29:28;100686.63;;;14.11;72.05
57048;BME280;42934;54.294;18.598;2022-09-09T06:31:59;100692.84;;;14.10;71.96
57048;BME280;42934;54.294;18.598;2022-09-09T06:34:29;100692.91;;;14.08;72.18
57048;BME280;42934;54.294;18.598;2022-09-09T06:37:00;100702.56;;;14.09;72.10
57048;BME280;42934;54.294;18.598;2022-09-09T06:39:41;100700.84;;;14.08;72.55
57048;BME280;42934;54.294;18.598;2022-09-09T06:42:11;100697.28;;;14.09;72.19
57048;BME280;42934;54.294;18.598;2022-09-09T06:44:49;100700.00;;;14.08;72.41
57048;BME280;42934;54.294;18.598;2022-09-09T06:47:30;100702.63;;;14.08;72.32
57048;BME280;42934;54.294;18.598;2022-09-09T06:49:59;100707.00;;;14.09;72.24
57048;BME280;42934;54.294;18.598;2022-09-09T06:52:31;100706.91;;;14.11;72.35
57048;BME280;42934;54.294;18.598;2022-09-09T06:55:02;100714.03;;;14.08;72.45
57048;BME280;42934;54.294;18.598;2022-09-09T06:57:33;100710.63;;;14.06;72.26
57048;BME280;42934;54.294;18.598;2022-09-09T07:00:10;100709.00;;;14.04;72.36
57048;BME280;42934;54.294;18.598;2022-09-09T07:02:43;100718.75;;;14.02;72.16
57048;BME280;42934;54.294;18.598;2022-09-09T07:05:14;100710.97;;;13.99;72.23
57048;BME280;42934;54.294;18.598;2022-09-09T07:07:45;100721.53;;;13.99;72.10
57048;BME280;42934;54.294;18.598;2022-09-09T07:10:19;100723.31;;;13.98;72.02
57048;BME280;42934;54.294;18.598;2022-09-09T07:12:51;100712.81;;;13.97;72.50
57048;BME280;42934;54.294;18.598;2022-09-09T07:15:24;100717.19;;;13.98;72.46
57048;BME280;42934;54.294;18.598;2022-09-09T07:18:00;100711.91;;;13.98;72.48
57048;BME280;42934;54.294;18.598;2022-09-09T07:20:30;100722.47;;;13.98;72.51
57048;BME280;42934;54.294;18.598;2022-09-09T07:23:00;100719.03;;;13.96;72.29
57048;BME280;42934;54.294;18.598;2022-09-09T07:25:29;100724.31;;;13.96;72.68
57048;BME280;42934;54.294;18.598;2022-09-09T07:27:58;100723.47;;;13.95;72.58
57048;BME280;42934;54.294;18.598;2022-09-09T07:30:28;100720.97;;;13.92;72.40
57048;BME280;42934;54.294;18.598;2022-09-09T07:32:59;100716.59;;;13.91;72.40
57048;BME280;42934;54.294;18.598;2022-09-09T07:35:30;100726.31;;;13.91;72.43
57048;BME280;42934;54.294;18.598;2022-09-09T07:38:01;100727.09;;;13.93;72.38
57048;BME280;42934;54.294;18.598;2022-09-09T07:40:31;100725.41;;;13.92;72.35
57048;BME280;42934;54.294;18.598;2022-09-09T07:43:00;100729.78;;;13.91;72.54
57048;BME280;42934;54.294;18.598;2022-09-09T07:45:30;100723.59;;;13.92;72.31
57048;BME280;42934;54.294;18.598;2022-09-09T07:48:02;100727.16;;;13.91;72.29
57048;BME280;42934;54.294;18.598;2022-09-09T07:50:32;100723.75;;;13.89;72.37
57048;BME280;42934;54.294;18.598;2022-09-09T07:53:01;100729.03;;;13.89;72.42
57048;BME280;42934;54.294;18.598;2022-09-09T07:55:33;100727.25;;;13.90;72.82
57048;BME280;42934;54.294;18.598;2022-09-09T07:58:02;100729.88;;;13.90;72.53
57048;BME280;42934;54.294;18.598;2022-09-09T08:00:32;100723.66;;;13.91;72.52
57048;BME280;42934;54.294;18.598;2022-09-09T08:03:03;100730.69;;;13.92;72.88
57048;BME280;42934;54.294;18.598;2022-09-09T08:05:33;100727.16;;;13.91;72.96
57048;BME280;42934;54.294;18.598;2022-09-09T08:08:03;100742.09;;;13.92;72.94
57048;BME280;42934;54.294;18.598;2022-09-09T08:10:32;100735.06;;;13.91;73.14
57048;BME280;42934;54.294;18.598;2022-09-09T08:13:02;100737.72;;;13.91;72.88
57048;BME280;42934;54.294;18.598;2022-09-09T08:15:48;100735.06;;;13.91;73.04
57048;BME280;42934;54.294;18.598;2022-09-09T08:18:21;100743.78;;;13.93;73.16
57048;BME280;42934;54.294;18.598;2022-09-09T08:20:51;100739.34;;;13.94;73.38
57048;BME280;42934;54.294;18.598;2022-09-09T08:23:21;100740.25;;;13.94;73.55
57048;BME280;42934;54.294;18.598;2022-09-09T08:25:50;100740.25;;;13.94;73.50
57048;BME280;42934;54.294;18.598;2022-09-09T08:28:19;100741.94;;;13.95;73.71
57048;BME280;42934;54.294;18.598;2022-09-09T08:30:49;100749.91;;;13.94;74.20
57048;BME280;42934;54.294;18.598;2022-09-09T08:33:22;100748.16;;;13.94;74.22
57048;BME280;42934;54.294;18.598;2022-09-09T08:35:53;100752.56;;;13.94;74.04
57048;BME280;42934;54.294;18.598;2022-09-09T08:38:23;100749.91;;;13.94;74.32
57048;BME280;42934;54.294;18.598;2022-09-09T08:40:57;100747.28;;;13.94;73.65
57048;BME280;42934;54.294;18.598;2022-09-09T08:43:30;100752.56;;;13.94;74.06
57048;BME280;42934;54.294;18.598;2022-09-09T08:46:05;100753.34;;;13.96;74.03
57048;BME280;42934;54.294;18.598;2022-09-09T08:48:47;100754.22;;;13.96;74.01
57048;BME280;42934;54.294;18.598;2022-09-09T08:51:21;100750.81;;;13.94;74.26
57048;BME280;42934;54.294;18.598;2022-09-09T08:53:55;100753.34;;;13.96;74.49
57048;BME280;42934;54.294;18.598;2022-09-09T08:56:28;100762.06;;;13.98;74.71
57048;BME280;42934;54.294;18.598;2022-09-09T08:59:02;100755.06;;;13.97;74.26
57048;BME280;42934;54.294;18.598;2022-09-09T09:01:53;100761.22;;;13.97;74.66
57048;BME280;42934;54.294;18.598;2022-09-09T09:04:58;100758.63;;;13.96;74.10
57048;BME280;42934;54.294;18.598;2022-09-09T09:07:40;100756.97;;;13.93;74.38
57048;BME280;42934;54.294;18.598;2022-09-09T09:10:28;100752.56;;;13.94;74.52
57048;BME280;42934;54.294;18.598;2022-09-09T09:13:14;100763.06;;;13.95;74.76
57048;BME280;42934;54.294;18.598;2022-09-09T09:15:50;100757.84;;;13.94;74.69
57048;BME280;42934;54.294;18.598;2022-09-09T09:18:22;100756.00;;;13.96;74.90
57048;BME280;42934;54.294;18.598;2022-09-09T09:21:01;100755.06;;;13.97;74.77
57048;BME280;42934;54.294;18.598;2022-09-09T09:23:41;100755.00;;;13.98;75.10
57048;BME280;42934;54.294;18.598;2022-09-09T09:26:14;100751.50;;;13.98;75.11
57048;BME280;42934;54.294;18.598;2022-09-09T09:28:44;100754.16;;;13.98;75.10
57048;BME280;42934;54.294;18.598;2022-09-09T09:31:18;100759.47;;;13.96;75.08
57048;BME280;42934;54.294;18.598;2022-09-09T09:33:52;100760.28;;;13.98;74.92
57048;BME280;42934;54.294;18.598;2022-09-09T09:36:39;100761.13;;;13.99;75.01
57048;BME280;42934;54.294;18.598;2022-09-09T09:39:23;100763.88;;;13.97;75.42
57048;BME280;42934;54.294;18.598;2022-09-09T09:42:15;100765.69;;;13.95;75.48
57048;BME280;42934;54.294;18.598;2022-09-09T09:44:52;100767.41;;;13.96;75.50
57048;BME280;42934;54.294;18.598;2022-09-09T09:47:23;100762.97;;;13.97;75.50
57048;BME280;42934;54.294;18.598;2022-09-09T09:50:23;100768.41;;;13.94;75.61
57048;BME280;42934;54.294;18.598;2022-09-09T09:53:00;100764.75;;;13.96;75.50
57048;BME280;42934;54.294;18.598;2022-09-09T09:55:35;100765.63;;;13.97;75.65
57048;BME280;42934;54.294;18.598;2022-09-09T09:58:13;100771.78;;;13.97;75.82
57048;BME280;42934;54.294;18.598;2022-09-09T10:00:50;100768.25;;;13.97;75.78
57048;BME280;42934;54.294;18.598;2022-09-09T10:03:25;100760.28;;;13.98;75.83
57048;BME280;42934;54.294;18.598;2022-09-09T10:05:56;100753.16;;;14.00;75.57
57048;BME280;42934;54.294;18.598;2022-09-09T10:08:28;100756.50;;;14.04;75.68
57048;BME280;42934;54.294;18.598;2022-09-09T10:11:10;100755.66;;;14.03;75.77
57048;BME280;42934;54.294;18.598;2022-09-09T10:13:52;100750.44;;;14.02;75.70
57048;BME280;42934;54.294;18.598;2022-09-09T10:16:32;100756.50;;;14.04;75.53
57048;BME280;42934;54.294;18.598;2022-09-09T10:19:09;100750.38;;;14.03;75.84
57048;BME280;42934;54.294;18.598;2022-09-09T10:21:56;100755.53;;;14.06;76.06
57048;BME280;42934;54.294;18.598;2022-09-09T10:24:53;100757.16;;;14.09;75.72
57048;BME280;42934;54.294;18.598;2022-09-09T10:27:32;100765.81;;;14.13;75.92
57048;BME280;42934;54.294;18.598;2022-09-09T10:30:12;100770.16;;;14.14;76.06
57048;BME280;42934;54.294;18.598;2022-09-09T10:32:49;100764.88;;;14.14;76.24
57048;BME280;42934;54.294;18.598;2022-09-09T10:35:27;100766.72;;;14.12;76.44
57048;BME280;42934;54.294;18.598;2022-09-09T10:38:19;100769.44;;;14.10;76.62
57048;BME280;42934;54.294;18.598;2022-09-09T10:41:18;100769.34;;;14.12;76.60
57048;BME280;42934;54.294;18.598;2022-09-09T10:44:11;100774.63;;;14.12;76.86
57048;BME280;42934;54.294;18.598;2022-09-09T10:46:55;100771.00;;;14.14;76.86
57048;BME280;42934;54.294;18.598;2022-09-09T10:49:48;100762.09;;;14.17;76.51
57048;BME280;42934;54.294;18.598;2022-09-09T10:52:27;100763.81;;;14.18;76.45
57048;BME280;42934;54.294;18.598;2022-09-09T10:55:01;100754.03;;;14.20;76.50
57048;BME280;42934;54.294;18.598;2022-09-09T10:57:40;100754.03;;;14.20;76.66
57048;BME280;42934;54.294;18.598;2022-09-09T11:00:18;100758.41;;;14.21;76.48
57048;BME280;42934;54.294;18.598;2022-09-09T11:02:52;100755.59;;;14.24;76.46
57048;BME280;42934;54.294;18.598;2022-09-09T11:05:28;100752.03;;;14.25;76.70
57048;BME280;42934;54.294;18.598;2022-09-09T11:08:01;100759.09;;;14.24;76.61
57048;BME280;42934;54.294;18.598;2022-09-09T11:10:38;100761.75;;;14.24;76.95
57048;BME280;42934;54.294;18.598;2022-09-09T11:13:14;100761.75;;;14.24;77.12
57048;BME280;42934;54.294;18.598;2022-09-09T11:15:49;100766.09;;;14.25;77.00
57048;BME280;42934;54.294;18.598;2022-09-09T11:18:21;100766.03;;;14.27;77.29
57048;BME280;42934;54.294;18.598;2022-09-09T11:20:54;100775.72;;;14.26;77.55
57048;BME280;42934;54.294;18.598;2022-09-09T11:23:29;100772.16;;;14.27;77.38
57048;BME280;42934;54.294;18.598;2022-09-09T11:26:12;100772.06;;;14.29;77.65
57048;BME280;42934;54.294;18.598;2022-09-09T11:28:57;100775.59;;;14.29;77.53
57048;BME280;42934;54.294;18.598;2022-09-09T11:31:43;100773.81;;;14.30;77.53
57048;BME280;42934;54.294;18.598;2022-09-09T11:34:23;100774.56;;;14.32;77.66
57048;BME280;42934;54.294;18.598;2022-09-09T11:37:25;100775.47;;;14.32;77.53
57048;BME280;42934;54.294;18.598;2022-09-09T11:40:14;100773.66;;;14.33;77.46
57048;BME280;42934;54.294;18.598;2022-09-09T11:42:45;100779.84;;;14.32;77.46
57048;BME280;42934;54.294;18.598;2022-09-09T11:45:24;100782.50;;;14.32;77.52
57048;BME280;42934;54.294;18.598;2022-09-09T11:47:57;100786.78;;;14.35;77.47
57048;BME280;42934;54.294;18.598;2022-09-09T11:50:37;100779.66;;;14.37;77.81
57048;BME280;42934;54.294;18.598;2022-09-09T11:53:22;100787.38;;;14.41;77.51
57048;BME280;42934;54.294;18.598;2022-09-09T11:56:07;100779.47;;;14.41;77.60
57048;BME280;42934;54.294;18.598;2022-09-09T11:58:57;100783.09;;;14.39;77.73
57048;BME280;42934;54.294;18.598;2022-09-09T12:01:34;100784.94;;;14.37;77.91
57048;BME280;42934;54.294;18.598;2022-09-09T12:06:59;100781.31;;;14.39;78.12
57048;BME280;42934;54.294;18.598;2022-09-09T12:09:36;100782.22;;;14.38;78.02
57048;BME280;42934;54.294;18.598;2022-09-09T12:12:23;100775.09;;;14.40;77.83
57048;BME280;42934;54.294;18.598;2022-09-09T12:15:21;100788.25;;;14.42;77.78
57048;BME280;42934;54.294;18.598;2022-09-09T12:17:54;100790.13;;;14.38;78.00
57048;BME280;42934;54.294;18.598;2022-09-09T12:20:34;100784.94;;;14.37;78.06
57048;BME280;42934;54.294;18.598;2022-09-09T12:23:22;100785.78;;;14.37;77.97
57048;BME280;42934;54.294;18.598;2022-09-09T12:25:58;100789.38;;;14.36;77.99
57048;BME280;42934;54.294;18.598;2022-09-09T12:28:41;100791.06;;;14.37;78.08
57048;BME280;42934;54.294;18.598;2022-09-09T12:31:17;100792.88;;;14.37;77.94
57048;BME280;42934;54.294;18.598;2022-09-09T12:33:51;100795.41;;;14.38;78.11
57048;BME280;42934;54.294;18.598;2022-09-09T12:36:23;100791.06;;;14.37;77.96
57048;BME280;42934;54.294;18.598;2022-09-09T12:38:54;100791.22;;;14.34;78.06
57048;BME280;42934;54.294;18.598;2022-09-09T12:41:27;100793.00;;;14.34;78.12
57048;BME280;42934;54.294;18.598;2022-09-09T12:44:04;100797.44;;;14.33;78.30
57048;BME280;42934;54.294;18.598;2022-09-09T12:46:39;100788.56;;;14.34;78.39
57048;BME280;42934;54.294;18.598;2022-09-09T12:49:29;100788.56;;;14.34;78.55
57048;BME280;42934;54.294;18.598;2022-09-09T12:52:04;100788.56;;;14.34;78.58
57048;BME280;42934;54.294;18.598;2022-09-09T12:54:36;100790.28;;;14.35;78.65
57048;BME280;42934;54.294;18.598;2022-09-09T12:57:09;100791.06;;;14.37;78.80
57048;BME280;42934;54.294;18.598;2022-09-09T12:59:41;100787.50;;;14.38;78.67
57048;BME280;42934;54.294;18.598;2022-09-09T13:02:20;100795.41;;;14.38;78.80
57048;BME280;42934;54.294;18.598;2022-09-09T13:04:52;100798.16;;;14.37;78.93
57048;BME280;42934;54.294;18.598;2022-09-09T13:07:22;100788.44;;;14.37;78.83
57048;BME280;42934;54.294;18.598;2022-09-09T13:09:53;100783.94;;;14.39;78.74
57048;BME280;42934;54.294;18.598;2022-09-09T13:12:23;100787.38;;;14.41;79.03
57048;BME280;42934;54.294;18.598;2022-09-09T13:14:55;100787.44;;;14.40;79.00
57048;BME280;42934;54.294;18.598;2022-09-09T13:17:26;100783.09;;;14.39;79.19
57048;BME280;42934;54.294;18.598;2022-09-09T13:19:58;100782.22;;;14.38;79.03
57048;BME280;42934;54.294;18.598;2022-09-09T13:22:35;100775.16;;;14.39;78.98
57048;BME280;42934;54.294;18.598;2022-09-09T13:25:17;100781.50;;;14.35;79.29